sensor_id;sensor_type;location;lat;lon;timestamp;P1;durP1;ratioP1;P2;durP2;ratioP2
29730;SDS011;16639;51.488;0.152;2023-02-14T00:00:01;86.57;;;43.35;;
29730;SDS011;16639;51.488;0.152;2023-02-14T00:02:30;80.88;;;41.75;;
29730;SDS011;16639;51.488;0.152;2023-02-14T00:04:57;83.32;;;42.05;;
29730;SDS011;16639;51.488;0.152;2023-02-14T00:07:25;90.65;;;43.78;;
29730;SDS011;16639;51.488;0.152;2023-02-14T00:09:52;82.88;;;41.88;;
29730;SDS011;16639;51.488;0.152;2023-02-14T00:12:20;83.50;;;41.58;;
29730;SDS011;16639;51.488;0.152;2023-02-14T00:14:47;76.72;;;39.20;;
29730;SDS011;16639;51.488;0.152;2023-02-14T00:17:33;81.00;;;40.87;;
29730;SDS011;16639;51.488;0.152;2023-02-14T00:20:00;78.50;;;41.40;;
29730;SDS011;16639;51.488;0.152;2023-02-14T00:22:27;84.90;;;41.42;;
29730;SDS011;16639;51.488;0.152;2023-02-14T00:24:55;86.80;;;42.42;;
29730;SDS011;16639;51.488;0.152;2023-02-14T00:27:23;91.18;;;43.45;;
29730;SDS011;16639;51.488;0.152;2023-02-14T00:29:51;77.93;;;41.72;;
29730;SDS011;16639;51.488;0.152;2023-02-14T00:32:19;82.90;;;43.47;;
29730;SDS011;16639;51.488;0.152;2023-02-14T00:34:47;91.35;;;44.88;;
29730;SDS011;16639;51.488;0.152;2023-02-14T00:37:14;103.22;;;45.80;;
29730;SDS011;16639;51.488;0.152;2023-02-14T00:39:41;87.50;;;43.47;;
29730;SDS011;16639;51.488;0.152;2023-02-14T00:42:08;77.50;;;40.88;;
29730;SDS011;16639;51.488;0.152;2023-02-14T00:44:36;79.88;;;39.55;;
29730;SDS011;16639;51.488;0.152;2023-02-14T00:47:03;92.60;;;43.53;;
29730;SDS011;16639;51.488;0.152;2023-02-14T00:49:31;89.55;;;41.92;;
29730;SDS011;16639;51.488;0.152;2023-02-14T00:51:58;85.55;;;41.40;;
29730;SDS011;16639;51.488;0.152;2023-02-14T00:54:25;77.53;;;40.17;;
29730;SDS011;16639;51.488;0.152;2023-02-14T00:56:53;85.47;;;40.65;;
29730;SDS011;16639;51.488;0.152;2023-02-14T00:59:20;78.53;;;41.72;;
29730;SDS011;16639;51.488;0.152;2023-02-14T01:01:47;88.07;;;44.78;;
29730;SDS011;16639;51.488;0.152;2023-02-14T01:04:15;90.63;;;43.50;;
29730;SDS011;16639;51.488;0.152;2023-02-14T01:06:42;91.93;;;45.00;;
29730;SDS011;16639;51.488;0.152;2023-02-14T01:09:10;89.57;;;46.70;;
29730;SDS011;16639;51.488;0.152;2023-02-14T01:11:38;84.45;;;43.38;;
29730;SDS011;16639;51.488;0.152;2023-02-14T01:14:05;85.95;;;43.28;;
29730;SDS011;16639;51.488;0.152;2023-02-14T01:16:33;90.32;;;42.65;;
29730;SDS011;16639;51.488;0.152;2023-02-14T01:19:02;78.40;;;43.20;;
29730;SDS011;16639;51.488;0.152;2023-02-14T01:21:30;88.47;;;44.63;;
29730;SDS011;16639;51.488;0.152;2023-02-14T01:24:00;93.68;;;43.38;;
29730;SDS011;16639;51.488;0.152;2023-02-14T01:26:29;89.00;;;43.47;;
29730;SDS011;16639;51.488;0.152;2023-02-14T01:28:57;95.13;;;44.55;;
29730;SDS011;16639;51.488;0.152;2023-02-14T01:31:25;91.20;;;43.42;;
29730;SDS011;16639;51.488;0.152;2023-02-14T01:33:54;87.68;;;45.10;;
29730;SDS011;16639;51.488;0.152;2023-02-14T01:36:26;95.25;;;46.38;;
29730;SDS011;16639;51.488;0.152;2023-02-14T01:38:55;80.57;;;43.63;;
29730;SDS011;16639;51.488;0.152;2023-02-14T01:41:25;89.60;;;43.80;;
29730;SDS011;16639;51.488;0.152;2023-02-14T01:43:55;92.90;;;45.03;;
29730;SDS011;16639;51.488;0.152;2023-02-14T01:46:26;89.25;;;44.47;;
29730;SDS011;16639;51.488;0.152;2023-02-14T01:48:57;93.28;;;44.25;;
29730;SDS011;16639;51.488;0.152;2023-02-14T01:51:30;91.07;;;44.95;;
29730;SDS011;16639;51.488;0.152;2023-02-14T01:54:00;82.55;;;42.40;;
29730;SDS011;16639;51.488;0.152;2023-02-14T01:56:31;91.72;;;43.42;;
29730;SDS011;16639;51.488;0.152;2023-02-14T01:59:07;93.80;;;42.65;;
29730;SDS011;16639;51.488;0.152;2023-02-14T02:01:38;89.72;;;42.72;;
29730;SDS011;16639;51.488;0.152;2023-02-14T02:04:08;87.05;;;41.42;;
29730;SDS011;16639;51.488;0.152;2023-02-14T02:06:39;83.18;;;40.80;;
29730;SDS011;16639;51.488;0.152;2023-02-14T02:12:01;80.32;;;42.78;;
29730;SDS011;16639;51.488;0.152;2023-02-14T02:14:29;86.63;;;44.33;;
29730;SDS011;16639;51.488;0.152;2023-02-14T02:28:04;93.45;;;46.92;;
29730;SDS011;16639;51.488;0.152;2023-02-14T02:48:04;86.23;;;44.30;;
29730;SDS011;16639;51.488;0.152;2023-02-14T02:50:42;90.00;;;43.80;;
29730;SDS011;16639;51.488;0.152;2023-02-14T02:53:45;85.78;;;44.88;;
29730;SDS011;16639;51.488;0.152;2023-02-14T02:56:21;94.10;;;44.92;;
29730;SDS011;16639;51.488;0.152;2023-02-14T03:04:47;89.65;;;43.88;;
29730;SDS011;16639;51.488;0.152;2023-02-14T03:07:36;90.18;;;45.22;;
29730;SDS011;16639;51.488;0.152;2023-02-14T03:10:12;92.40;;;42.67;;
29730;SDS011;16639;51.488;0.152;2023-02-14T03:15:37;81.75;;;41.95;;
29730;SDS011;16639;51.488;0.152;2023-02-14T03:21:35;83.75;;;42.33;;
29730;SDS011;16639;51.488;0.152;2023-02-14T03:32:03;85.75;;;42.38;;
29730;SDS011;16639;51.488;0.152;2023-02-14T03:40:18;87.63;;;44.28;;
29730;SDS011;16639;51.488;0.152;2023-02-14T03:43:16;93.50;;;43.35;;
29730;SDS011;16639;51.488;0.152;2023-02-14T03:45:49;91.88;;;47.15;;
29730;SDS011;16639;51.488;0.152;2023-02-14T03:48:22;96.22;;;45.38;;
29730;SDS011;16639;51.488;0.152;2023-02-14T03:50:53;92.70;;;45.45;;
29730;SDS011;16639;51.488;0.152;2023-02-14T03:53:22;84.82;;;43.33;;
29730;SDS011;16639;51.488;0.152;2023-02-14T03:55:58;84.05;;;43.55;;
29730;SDS011;16639;51.488;0.152;2023-02-14T03:58:31;87.68;;;44.58;;
29730;SDS011;16639;51.488;0.152;2023-02-14T04:01:05;83.72;;;44.30;;
29730;SDS011;16639;51.488;0.152;2023-02-14T04:03:40;88.70;;;43.90;;
29730;SDS011;16639;51.488;0.152;2023-02-14T04:06:09;87.03;;;44.08;;
29730;SDS011;16639;51.488;0.152;2023-02-14T04:08:36;93.78;;;43.83;;
29730;SDS011;16639;51.488;0.152;2023-02-14T04:11:04;88.70;;;43.08;;
29730;SDS011;16639;51.488;0.152;2023-02-14T04:13:32;87.72;;;42.90;;
29730;SDS011;16639;51.488;0.152;2023-02-14T04:16:02;84.70;;;43.10;;
29730;SDS011;16639;51.488;0.152;2023-02-14T04:18:30;83.03;;;42.70;;
29730;SDS011;16639;51.488;0.152;2023-02-14T04:21:16;88.72;;;43.40;;
29730;SDS011;16639;51.488;0.152;2023-02-14T04:23:43;89.75;;;42.85;;
29730;SDS011;16639;51.488;0.152;2023-02-14T04:26:11;88.03;;;44.35;;
29730;SDS011;16639;51.488;0.152;2023-02-14T04:28:38;82.00;;;41.78;;
29730;SDS011;16639;51.488;0.152;2023-02-14T04:31:06;81.72;;;40.35;;
29730;SDS011;16639;51.488;0.152;2023-02-14T04:33:33;81.63;;;40.30;;
29730;SDS011;16639;51.488;0.152;2023-02-14T04:36:00;78.53;;;39.20;;
29730;SDS011;16639;51.488;0.152;2023-02-14T04:38:28;83.10;;;40.33;;
29730;SDS011;16639;51.488;0.152;2023-02-14T04:40:57;86.80;;;40.90;;
29730;SDS011;16639;51.488;0.152;2023-02-14T04:43:24;80.20;;;41.00;;
29730;SDS011;16639;51.488;0.152;2023-02-14T04:45:52;73.72;;;39.03;;
29730;SDS011;16639;51.488;0.152;2023-02-14T04:48:19;81.28;;;39.92;;
29730;SDS011;16639;51.488;0.152;2023-02-14T04:50:50;80.85;;;41.38;;
29730;SDS011;16639;51.488;0.152;2023-02-14T04:53:19;79.70;;;42.22;;
29730;SDS011;16639;51.488;0.152;2023-02-14T04:55:47;80.40;;;41.95;;
29730;SDS011;16639;51.488;0.152;2023-02-14T04:58:16;80.82;;;40.50;;
29730;SDS011;16639;51.488;0.152;2023-02-14T05:00:43;87.38;;;42.00;;
29730;SDS011;16639;51.488;0.152;2023-02-14T05:03:11;84.13;;;44.50;;
29730;SDS011;16639;51.488;0.152;2023-02-14T05:05:38;76.75;;;39.95;;
29730;SDS011;16639;51.488;0.152;2023-02-14T05:08:05;88.32;;;42.60;;
29730;SDS011;16639;51.488;0.152;2023-02-14T05:10:33;85.90;;;42.90;;
29730;SDS011;16639;51.488;0.152;2023-02-14T05:13:00;86.18;;;42.53;;
29730;SDS011;16639;51.488;0.152;2023-02-14T05:15:27;89.22;;;44.03;;
29730;SDS011;16639;51.488;0.152;2023-02-14T05:17:55;89.50;;;43.83;;
29730;SDS011;16639;51.488;0.152;2023-02-14T05:20:27;90.57;;;43.63;;
29730;SDS011;16639;51.488;0.152;2023-02-14T05:22:55;86.03;;;45.42;;
29730;SDS011;16639;51.488;0.152;2023-02-14T05:25:25;81.72;;;41.13;;
29730;SDS011;16639;51.488;0.152;2023-02-14T05:27:52;85.30;;;44.38;;
29730;SDS011;16639;51.488;0.152;2023-02-14T05:30:20;86.05;;;44.15;;
29730;SDS011;16639;51.488;0.152;2023-02-14T05:32:53;94.15;;;43.00;;
29730;SDS011;16639;51.488;0.152;2023-02-14T05:35:21;86.13;;;43.95;;
29730;SDS011;16639;51.488;0.152;2023-02-14T05:37:48;83.82;;;43.42;;
29730;SDS011;16639;51.488;0.152;2023-02-14T05:40:16;91.00;;;43.70;;
29730;SDS011;16639;51.488;0.152;2023-02-14T05:42:43;91.80;;;46.35;;
29730;SDS011;16639;51.488;0.152;2023-02-14T05:45:11;93.60;;;44.80;;
29730;SDS011;16639;51.488;0.152;2023-02-14T05:47:39;96.28;;;46.97;;
29730;SDS011;16639;51.488;0.152;2023-02-14T05:50:06;89.10;;;44.92;;
29730;SDS011;16639;51.488;0.152;2023-02-14T05:52:34;88.55;;;44.53;;
29730;SDS011;16639;51.488;0.152;2023-02-14T05:55:02;94.03;;;45.22;;
29730;SDS011;16639;51.488;0.152;2023-02-14T05:57:30;87.63;;;45.17;;
29730;SDS011;16639;51.488;0.152;2023-02-14T05:59:58;91.90;;;45.13;;
29730;SDS011;16639;51.488;0.152;2023-02-14T06:02:25;96.30;;;45.58;;
29730;SDS011;16639;51.488;0.152;2023-02-14T06:04:53;95.20;;;45.70;;
29730;SDS011;16639;51.488;0.152;2023-02-14T06:07:20;90.00;;;44.10;;
29730;SDS011;16639;51.488;0.152;2023-02-14T06:09:47;86.68;;;43.95;;
29730;SDS011;16639;51.488;0.152;2023-02-14T06:12:15;85.18;;;43.70;;
29730;SDS011;16639;51.488;0.152;2023-02-14T06:14:42;79.10;;;40.75;;
29730;SDS011;16639;51.488;0.152;2023-02-14T06:17:10;86.30;;;43.17;;
29730;SDS011;16639;51.488;0.152;2023-02-14T06:19:38;93.57;;;46.35;;
29730;SDS011;16639;51.488;0.152;2023-02-14T06:22:05;84.20;;;44.03;;
29730;SDS011;16639;51.488;0.152;2023-02-14T06:24:32;85.70;;;46.63;;
29730;SDS011;16639;51.488;0.152;2023-02-14T06:27:00;88.05;;;45.28;;
29730;SDS011;16639;51.488;0.152;2023-02-14T06:29:27;89.47;;;43.15;;
29730;SDS011;16639;51.488;0.152;2023-02-14T06:31:54;92.95;;;44.72;;
29730;SDS011;16639;51.488;0.152;2023-02-14T06:34:22;84.88;;;43.35;;
29730;SDS011;16639;51.488;0.152;2023-02-14T06:36:49;84.80;;;47.33;;
29730;SDS011;16639;51.488;0.152;2023-02-14T06:39:17;86.18;;;45.40;;
29730;SDS011;16639;51.488;0.152;2023-02-14T06:41:44;90.93;;;49.17;;
29730;SDS011;16639;51.488;0.152;2023-02-14T06:44:11;94.15;;;46.85;;
29730;SDS011;16639;51.488;0.152;2023-02-14T06:46:39;90.63;;;45.83;;
29730;SDS011;16639;51.488;0.152;2023-02-14T06:49:06;97.07;;;47.67;;
29730;SDS011;16639;51.488;0.152;2023-02-14T06:51:34;99.82;;;48.45;;
29730;SDS011;16639;51.488;0.152;2023-02-14T06:54:02;91.38;;;45.92;;
29730;SDS011;16639;51.488;0.152;2023-02-14T06:56:29;93.20;;;45.67;;
29730;SDS011;16639;51.488;0.152;2023-02-14T06:58:56;91.15;;;46.38;;
29730;SDS011;16639;51.488;0.152;2023-02-14T07:01:24;85.72;;;45.28;;
29730;SDS011;16639;51.488;0.152;2023-02-14T07:03:51;90.85;;;46.42;;
29730;SDS011;16639;51.488;0.152;2023-02-14T07:06:18;88.75;;;46.30;;
29730;SDS011;16639;51.488;0.152;2023-02-14T07:08:46;87.28;;;45.03;;
29730;SDS011;16639;51.488;0.152;2023-02-14T07:11:13;95.68;;;46.58;;
29730;SDS011;16639;51.488;0.152;2023-02-14T07:13:41;94.55;;;46.70;;
29730;SDS011;16639;51.488;0.152;2023-02-14T07:16:09;80.88;;;43.40;;
29730;SDS011;16639;51.488;0.152;2023-02-14T07:18:37;91.53;;;44.70;;
29730;SDS011;16639;51.488;0.152;2023-02-14T07:21:04;81.05;;;43.10;;
29730;SDS011;16639;51.488;0.152;2023-02-14T07:23:31;82.18;;;42.13;;
29730;SDS011;16639;51.488;0.152;2023-02-14T07:25:58;88.05;;;46.88;;
29730;SDS011;16639;51.488;0.152;2023-02-14T07:28:26;80.20;;;44.55;;
29730;SDS011;16639;51.488;0.152;2023-02-14T07:30:53;82.10;;;43.83;;
29730;SDS011;16639;51.488;0.152;2023-02-14T07:33:21;89.05;;;45.55;;
29730;SDS011;16639;51.488;0.152;2023-02-14T07:35:48;84.55;;;45.22;;
29730;SDS011;16639;51.488;0.152;2023-02-14T07:38:15;95.47;;;48.13;;
29730;SDS011;16639;51.488;0.152;2023-02-14T07:40:42;92.70;;;48.47;;
29730;SDS011;16639;51.488;0.152;2023-02-14T07:43:10;94.05;;;47.30;;
29730;SDS011;16639;51.488;0.152;2023-02-14T07:45:37;90.63;;;45.63;;
29730;SDS011;16639;51.488;0.152;2023-02-14T07:48:04;94.32;;;48.33;;
29730;SDS011;16639;51.488;0.152;2023-02-14T07:50:32;94.45;;;47.40;;
29730;SDS011;16639;51.488;0.152;2023-02-14T07:53:00;95.53;;;47.40;;
29730;SDS011;16639;51.488;0.152;2023-02-14T07:55:27;95.32;;;48.45;;
29730;SDS011;16639;51.488;0.152;2023-02-14T07:57:54;89.97;;;48.38;;
29730;SDS011;16639;51.488;0.152;2023-02-14T08:00:22;97.20;;;48.33;;
29730;SDS011;16639;51.488;0.152;2023-02-14T08:02:49;94.40;;;46.42;;
29730;SDS011;16639;51.488;0.152;2023-02-14T08:05:17;96.30;;;48.90;;
29730;SDS011;16639;51.488;0.152;2023-02-14T08:07:44;93.05;;;47.85;;
29730;SDS011;16639;51.488;0.152;2023-02-14T08:10:12;97.38;;;48.55;;
29730;SDS011;16639;51.488;0.152;2023-02-14T08:12:40;99.50;;;48.70;;
29730;SDS011;16639;51.488;0.152;2023-02-14T08:15:26;88.60;;;45.88;;
29730;SDS011;16639;51.488;0.152;2023-02-14T08:18:13;93.63;;;46.35;;
29730;SDS011;16639;51.488;0.152;2023-02-14T08:20:41;97.10;;;47.33;;
29730;SDS011;16639;51.488;0.152;2023-02-14T08:23:09;92.63;;;47.92;;
29730;SDS011;16639;51.488;0.152;2023-02-14T08:25:37;99.68;;;49.92;;
29730;SDS011;16639;51.488;0.152;2023-02-14T08:28:04;94.43;;;48.33;;
29730;SDS011;16639;51.488;0.152;2023-02-14T08:30:34;82.75;;;44.88;;
29730;SDS011;16639;51.488;0.152;2023-02-14T08:33:03;90.68;;;46.33;;
29730;SDS011;16639;51.488;0.152;2023-02-14T08:35:30;90.20;;;45.03;;
29730;SDS011;16639;51.488;0.152;2023-02-14T08:37:58;93.15;;;44.85;;
29730;SDS011;16639;51.488;0.152;2023-02-14T08:40:26;87.63;;;44.17;;
29730;SDS011;16639;51.488;0.152;2023-02-14T08:42:54;88.80;;;41.92;;
29730;SDS011;16639;51.488;0.152;2023-02-14T08:45:21;81.13;;;43.35;;
29730;SDS011;16639;51.488;0.152;2023-02-14T08:47:48;77.85;;;42.63;;
29730;SDS011;16639;51.488;0.152;2023-02-14T08:50:16;80.55;;;43.13;;
29730;SDS011;16639;51.488;0.152;2023-02-14T08:52:44;80.90;;;42.47;;
29730;SDS011;16639;51.488;0.152;2023-02-14T08:55:12;77.15;;;41.05;;
29730;SDS011;16639;51.488;0.152;2023-02-14T08:57:39;79.53;;;41.00;;
29730;SDS011;16639;51.488;0.152;2023-02-14T09:00:07;78.78;;;40.38;;
29730;SDS011;16639;51.488;0.152;2023-02-14T09:02:35;85.63;;;43.33;;
29730;SDS011;16639;51.488;0.152;2023-02-14T09:05:03;78.30;;;41.10;;
29730;SDS011;16639;51.488;0.152;2023-02-14T09:07:31;81.93;;;43.05;;
29730;SDS011;16639;51.488;0.152;2023-02-14T09:09:59;75.43;;;42.88;;
29730;SDS011;16639;51.488;0.152;2023-02-14T09:12:26;105.70;;;45.13;;
29730;SDS011;16639;51.488;0.152;2023-02-14T09:14:54;79.47;;;43.55;;
29730;SDS011;16639;51.488;0.152;2023-02-14T09:17:21;78.50;;;42.65;;
29730;SDS011;16639;51.488;0.152;2023-02-14T09:19:48;81.25;;;42.83;;
29730;SDS011;16639;51.488;0.152;2023-02-14T09:22:16;81.20;;;45.67;;
29730;SDS011;16639;51.488;0.152;2023-02-14T09:24:45;78.25;;;44.13;;
29730;SDS011;16639;51.488;0.152;2023-02-14T09:27:13;82.53;;;44.65;;
29730;SDS011;16639;51.488;0.152;2023-02-14T09:29:40;82.95;;;43.97;;
29730;SDS011;16639;51.488;0.152;2023-02-14T09:32:08;80.85;;;42.85;;
29730;SDS011;16639;51.488;0.152;2023-02-14T09:34:35;78.07;;;44.30;;
29730;SDS011;16639;51.488;0.152;2023-02-14T09:37:03;82.15;;;43.67;;
29730;SDS011;16639;51.488;0.152;2023-02-14T09:39:32;89.30;;;45.72;;
29730;SDS011;16639;51.488;0.152;2023-02-14T09:44:52;82.07;;;43.00;;
29730;SDS011;16639;51.488;0.152;2023-02-14T09:50:19;88.88;;;44.83;;
29730;SDS011;16639;51.488;0.152;2023-02-14T09:52:52;82.88;;;46.28;;
29730;SDS011;16639;51.488;0.152;2023-02-14T09:55:30;88.00;;;47.33;;
29730;SDS011;16639;51.488;0.152;2023-02-14T09:58:12;75.10;;;46.05;;
29730;SDS011;16639;51.488;0.152;2023-02-14T10:00:52;93.65;;;47.45;;
29730;SDS011;16639;51.488;0.152;2023-02-14T10:12:03;79.10;;;44.40;;
29730;SDS011;16639;51.488;0.152;2023-02-14T10:14:39;97.72;;;50.67;;
29730;SDS011;16639;51.488;0.152;2023-02-14T10:17:17;90.10;;;48.92;;
29730;SDS011;16639;51.488;0.152;2023-02-14T10:20:26;89.32;;;48.08;;
29730;SDS011;16639;51.488;0.152;2023-02-14T10:25:53;87.38;;;48.55;;
29730;SDS011;16639;51.488;0.152;2023-02-14T10:28:34;92.03;;;49.15;;
29730;SDS011;16639;51.488;0.152;2023-02-14T10:33:58;88.25;;;48.10;;
29730;SDS011;16639;51.488;0.152;2023-02-14T10:36:41;91.00;;;48.55;;
29730;SDS011;16639;51.488;0.152;2023-02-14T10:50:24;96.18;;;53.40;;
29730;SDS011;16639;51.488;0.152;2023-02-14T10:58:25;98.32;;;52.15;;
29730;SDS011;16639;51.488;0.152;2023-02-14T11:01:15;89.95;;;54.08;;
29730;SDS011;16639;51.488;0.152;2023-02-14T11:03:50;102.68;;;54.72;;
29730;SDS011;16639;51.488;0.152;2023-02-14T11:06:21;97.40;;;55.88;;
29730;SDS011;16639;51.488;0.152;2023-02-14T11:08:48;93.10;;;52.00;;
29730;SDS011;16639;51.488;0.152;2023-02-14T11:11:20;88.53;;;50.80;;
29730;SDS011;16639;51.488;0.152;2023-02-14T11:16:50;101.40;;;59.10;;
29730;SDS011;16639;51.488;0.152;2023-02-14T11:21:57;96.00;;;55.20;;
29730;SDS011;16639;51.488;0.152;2023-02-14T11:29:42;104.70;;;55.97;;
29730;SDS011;16639;51.488;0.152;2023-02-14T11:32:15;93.97;;;54.10;;
29730;SDS011;16639;51.488;0.152;2023-02-14T11:37:24;106.28;;;57.03;;
29730;SDS011;16639;51.488;0.152;2023-02-14T11:39:55;101.65;;;58.63;;
29730;SDS011;16639;51.488;0.152;2023-02-14T11:42:58;105.55;;;59.65;;
29730;SDS011;16639;51.488;0.152;2023-02-14T11:45:36;98.47;;;58.83;;
29730;SDS011;16639;51.488;0.152;2023-02-14T11:50:43;109.88;;;57.95;;
29730;SDS011;16639;51.488;0.152;2023-02-14T11:53:28;103.50;;;55.63;;
29730;SDS011;16639;51.488;0.152;2023-02-14T11:56:14;103.28;;;56.88;;
29730;SDS011;16639;51.488;0.152;2023-02-14T12:01:11;100.85;;;57.35;;
29730;SDS011;16639;51.488;0.152;2023-02-14T12:03:48;112.10;;;62.38;;
29730;SDS011;16639;51.488;0.152;2023-02-14T12:06:30;99.65;;;53.15;;
29730;SDS011;16639;51.488;0.152;2023-02-14T12:11:55;93.10;;;51.55;;
29730;SDS011;16639;51.488;0.152;2023-02-14T12:14:25;89.00;;;49.55;;
29730;SDS011;16639;51.488;0.152;2023-02-14T12:17:41;97.97;;;53.03;;
29730;SDS011;16639;51.488;0.152;2023-02-14T12:19:48;98.00;;;52.17;;
29730;SDS011;16639;51.488;0.152;2023-02-14T12:22:21;105.68;;;54.53;;
29730;SDS011;16639;51.488;0.152;2023-02-14T12:28:08;93.88;;;54.75;;
29730;SDS011;16639;51.488;0.152;2023-02-14T12:30:41;85.32;;;48.75;;
29730;SDS011;16639;51.488;0.152;2023-02-14T12:33:13;86.95;;;49.83;;
29730;SDS011;16639;51.488;0.152;2023-02-14T12:47:43;80.18;;;43.67;;
29730;SDS011;16639;51.488;0.152;2023-02-14T12:52:53;69.43;;;41.28;;
29730;SDS011;16639;51.488;0.152;2023-02-14T13:23:11;54.17;;;33.73;;
29730;SDS011;16639;51.488;0.152;2023-02-14T13:28:50;52.83;;;30.80;;
29730;SDS011;16639;51.488;0.152;2023-02-14T13:31:23;49.70;;;29.77;;
29730;SDS011;16639;51.488;0.152;2023-02-14T13:34:18;61.08;;;32.17;;
29730;SDS011;16639;51.488;0.152;2023-02-14T13:36:41;50.25;;;30.15;;
29730;SDS011;16639;51.488;0.152;2023-02-14T13:39:10;53.83;;;27.77;;
29730;SDS011;16639;51.488;0.152;2023-02-14T13:41:48;48.97;;;26.83;;
29730;SDS011;16639;51.488;0.152;2023-02-14T13:47:22;48.03;;;26.27;;
29730;SDS011;16639;51.488;0.152;2023-02-14T13:49:55;42.20;;;25.52;;
29730;SDS011;16639;51.488;0.152;2023-02-14T13:52:41;54.05;;;27.73;;
29730;SDS011;16639;51.488;0.152;2023-02-14T13:55:23;50.90;;;29.45;;
29730;SDS011;16639;51.488;0.152;2023-02-14T13:58:00;43.28;;;23.40;;
29730;SDS011;16639;51.488;0.152;2023-02-14T14:00:39;37.13;;;22.58;;
29730;SDS011;16639;51.488;0.152;2023-02-14T14:03:11;32.05;;;21.13;;
29730;SDS011;16639;51.488;0.152;2023-02-14T14:08:17;39.85;;;22.70;;
29730;SDS011;16639;51.488;0.152;2023-02-14T14:11:02;42.00;;;24.10;;
29730;SDS011;16639;51.488;0.152;2023-02-14T14:19:00;38.53;;;22.85;;
29730;SDS011;16639;51.488;0.152;2023-02-14T14:26:58;30.27;;;19.02;;
29730;SDS011;16639;51.488;0.152;2023-02-14T14:29:33;25.05;;;12.07;;
29730;SDS011;16639;51.488;0.152;2023-02-14T14:32:47;22.05;;;9.65;;
29730;SDS011;16639;51.488;0.152;2023-02-14T14:37:46;40.28;;;24.85;;
29730;SDS011;16639;51.488;0.152;2023-02-14T14:43:04;36.10;;;21.25;;
29730;SDS011;16639;51.488;0.152;2023-02-14T14:45:35;45.42;;;24.63;;
29730;SDS011;16639;51.488;0.152;2023-02-14T14:48:07;39.90;;;24.23;;
29730;SDS011;16639;51.488;0.152;2023-02-14T14:50:38;39.13;;;24.08;;
29730;SDS011;16639;51.488;0.152;2023-02-14T14:53:21;41.75;;;23.55;;
29730;SDS011;16639;51.488;0.152;2023-02-14T14:56:18;35.03;;;21.25;;
29730;SDS011;16639;51.488;0.152;2023-02-14T14:58:47;41.28;;;22.85;;
29730;SDS011;16639;51.488;0.152;2023-02-14T15:01:27;38.65;;;21.15;;
29730;SDS011;16639;51.488;0.152;2023-02-14T15:04:08;22.55;;;12.68;;
29730;SDS011;16639;51.488;0.152;2023-02-14T15:06:45;17.15;;;10.00;;
29730;SDS011;16639;51.488;0.152;2023-02-14T15:09:29;16.60;;;9.50;;
29730;SDS011;16639;51.488;0.152;2023-02-14T15:11:58;11.45;;;7.72;;
29730;SDS011;16639;51.488;0.152;2023-02-14T15:14:48;11.13;;;6.85;;
29730;SDS011;16639;51.488;0.152;2023-02-14T15:17:21;15.90;;;7.93;;
29730;SDS011;16639;51.488;0.152;2023-02-14T15:19:55;13.48;;;6.93;;
29730;SDS011;16639;51.488;0.152;2023-02-14T15:25:21;11.20;;;6.72;;
29730;SDS011;16639;51.488;0.152;2023-02-14T15:27:53;12.93;;;5.72;;
29730;SDS011;16639;51.488;0.152;2023-02-14T15:32:55;12.05;;;6.57;;
29730;SDS011;16639;51.488;0.152;2023-02-14T15:35:25;11.95;;;7.05;;
29730;SDS011;16639;51.488;0.152;2023-02-14T15:37:58;15.23;;;7.35;;
29730;SDS011;16639;51.488;0.152;2023-02-14T15:40:29;16.88;;;6.55;;
29730;SDS011;16639;51.488;0.152;2023-02-14T15:43:13;10.55;;;6.50;;
29730;SDS011;16639;51.488;0.152;2023-02-14T15:45:44;9.55;;;6.28;;
29730;SDS011;16639;51.488;0.152;2023-02-14T15:48:17;10.18;;;6.15;;
29730;SDS011;16639;51.488;0.152;2023-02-14T15:50:48;10.18;;;6.10;;
29730;SDS011;16639;51.488;0.152;2023-02-14T15:55:45;10.23;;;6.70;;
29730;SDS011;16639;51.488;0.152;2023-02-14T15:58:17;10.40;;;6.53;;
29730;SDS011;16639;51.488;0.152;2023-02-14T16:00:48;12.73;;;7.95;;
29730;SDS011;16639;51.488;0.152;2023-02-14T16:03:18;14.43;;;7.03;;
29730;SDS011;16639;51.488;0.152;2023-02-14T16:05:48;16.67;;;8.52;;
29730;SDS011;16639;51.488;0.152;2023-02-14T16:08:30;17.30;;;8.10;;
29730;SDS011;16639;51.488;0.152;2023-02-14T16:11:00;9.73;;;6.05;;
29730;SDS011;16639;51.488;0.152;2023-02-14T16:13:29;13.15;;;7.15;;
29730;SDS011;16639;51.488;0.152;2023-02-14T16:18:34;12.18;;;7.82;;
29730;SDS011;16639;51.488;0.152;2023-02-14T16:21:10;13.98;;;8.52;;
29730;SDS011;16639;51.488;0.152;2023-02-14T16:23:37;11.38;;;8.27;;
29730;SDS011;16639;51.488;0.152;2023-02-14T16:26:05;16.25;;;9.15;;
29730;SDS011;16639;51.488;0.152;2023-02-14T16:28:33;14.98;;;9.68;;
29730;SDS011;16639;51.488;0.152;2023-02-14T16:31:05;17.08;;;10.18;;
29730;SDS011;16639;51.488;0.152;2023-02-14T16:33:37;19.13;;;11.75;;
29730;SDS011;16639;51.488;0.152;2023-02-14T16:36:18;16.27;;;11.30;;
29730;SDS011;16639;51.488;0.152;2023-02-14T16:38:50;23.48;;;14.70;;
29730;SDS011;16639;51.488;0.152;2023-02-14T16:41:25;24.25;;;15.05;;
29730;SDS011;16639;51.488;0.152;2023-02-14T16:43:54;30.58;;;15.85;;
29730;SDS011;16639;51.488;0.152;2023-02-14T16:46:24;26.70;;;16.00;;
29730;SDS011;16639;51.488;0.152;2023-02-14T16:48:55;23.13;;;14.38;;
29730;SDS011;16639;51.488;0.152;2023-02-14T16:51:27;27.63;;;15.38;;
29730;SDS011;16639;51.488;0.152;2023-02-14T16:53:57;27.98;;;15.80;;
29730;SDS011;16639;51.488;0.152;2023-02-14T16:56:37;28.67;;;16.38;;
29730;SDS011;16639;51.488;0.152;2023-02-14T16:59:08;31.20;;;17.48;;
29730;SDS011;16639;51.488;0.152;2023-02-14T17:01:36;30.95;;;17.42;;
29730;SDS011;16639;51.488;0.152;2023-02-14T17:04:04;28.35;;;16.70;;
29730;SDS011;16639;51.488;0.152;2023-02-14T17:06:32;31.25;;;18.08;;
29730;SDS011;16639;51.488;0.152;2023-02-14T17:09:02;28.40;;;16.60;;
29730;SDS011;16639;51.488;0.152;2023-02-14T17:11:36;34.17;;;17.70;;
29730;SDS011;16639;51.488;0.152;2023-02-14T17:14:07;35.30;;;17.23;;
29730;SDS011;16639;51.488;0.152;2023-02-14T17:16:37;33.00;;;19.60;;
29730;SDS011;16639;51.488;0.152;2023-02-14T17:19:05;31.60;;;17.70;;
29730;SDS011;16639;51.488;0.152;2023-02-14T17:21:32;32.75;;;18.58;;
29730;SDS011;16639;51.488;0.152;2023-02-14T17:24:01;27.73;;;16.42;;
29730;SDS011;16639;51.488;0.152;2023-02-14T17:26:29;35.00;;;20.50;;
29730;SDS011;16639;51.488;0.152;2023-02-14T17:28:58;31.05;;;18.98;;
29730;SDS011;16639;51.488;0.152;2023-02-14T17:31:25;30.92;;;20.10;;
29730;SDS011;16639;51.488;0.152;2023-02-14T17:33:54;33.58;;;20.85;;
29730;SDS011;16639;51.488;0.152;2023-02-14T17:36:21;35.33;;;19.63;;
29730;SDS011;16639;51.488;0.152;2023-02-14T17:38:51;37.00;;;23.00;;
29730;SDS011;16639;51.488;0.152;2023-02-14T17:41:20;48.97;;;25.90;;
29730;SDS011;16639;51.488;0.152;2023-02-14T17:43:49;46.03;;;24.17;;
29730;SDS011;16639;51.488;0.152;2023-02-14T17:46:18;43.60;;;27.27;;
29730;SDS011;16639;51.488;0.152;2023-02-14T17:48:47;45.05;;;28.73;;
29730;SDS011;16639;51.488;0.152;2023-02-14T17:51:15;55.05;;;32.47;;
29730;SDS011;16639;51.488;0.152;2023-02-14T17:53:43;53.03;;;33.00;;
29730;SDS011;16639;51.488;0.152;2023-02-14T17:56:18;59.67;;;37.03;;
29730;SDS011;16639;51.488;0.152;2023-02-14T17:58:47;74.13;;;42.65;;